createdAt,value
2018-04-01T00:00:14.939Z,100428.27
2018-04-01T00:03:17.458Z,100425.55
2018-04-01T00:06:20.768Z,100421.88
2018-04-01T00:09:23.270Z,100422.20
2018-04-01T00:12:25.798Z,100423.72
2018-04-01T00:15:28.299Z,100428.97
2018-04-01T00:18:30.827Z,100421.28
2018-04-01T00:21:33.330Z,100430.41
2018-04-01T00:24:35.875Z,100428.83
2018-04-01T00:27:38.383Z,100423.47
2018-04-01T00:30:40.931Z,100424.99
2018-04-01T00:33:43.434Z,100429.25
2018-04-01T00:36:45.967Z,100432.85
2018-04-01T00:39:49.242Z,100434.38
2018-04-01T00:42:51.770Z,100435.70
2018-04-01T00:45:54.284Z,100441.32
2018-04-01T00:48:57.575Z,100440.47
2018-04-01T00:52:00.866Z,100443.75
2018-04-01T00:55:03.378Z,100438.56
2018-04-01T00:58:05.914Z,100440.41
2018-04-01T01:01:08.418Z,100431.27
2018-04-01T01:04:11.707Z,100429.09
2018-04-01T01:07:14.979Z,100431.45
2018-04-01T01:10:17.502Z,100423.77
2018-04-01T01:13:20.031Z,100421.45
2018-04-01T01:16:22.540Z,100418.16
2018-04-01T01:19:25.835Z,100417.13
2018-04-01T01:22:29.102Z,100412.20
2018-04-01T01:25:31.622Z,100416.27
2018-04-01T01:28:34.121Z,100421.41
2018-04-01T01:31:36.644Z,100417.39
2018-04-01T01:34:39.152Z,100420.48
2018-04-01T01:37:41.679Z,100426.13
2018-04-01T01:40:44.195Z,100420.84
2018-04-01T01:43:47.470Z,100419.33
2018-04-01T01:46:49.994Z,100423.09
2018-04-01T01:49:52.507Z,100411.67
2018-04-01T01:52:55.032Z,100424.99
2018-04-01T01:55:57.543Z,100419.15
2018-04-01T01:59:00.066Z,100421.19
2018-04-01T02:02:02.587Z,100421.20
2018-04-01T02:05:05.114Z,100421.02
2018-04-01T02:08:07.642Z,100422.19
2018-04-01T02:11:10.166Z,100423.63
2018-04-01T02:14:12.690Z,100423.63
2018-04-01T02:17:15.190Z,100421.22
2018-04-01T02:20:17.727Z,100419.69
2018-04-01T02:23:20.995Z,100419.61
2018-04-01T02:26:23.523Z,100416.86
2018-04-01T02:29:26.055Z,100419.80
2018-04-01T02:32:28.583Z,100419.66
2018-04-01T02:35:31.119Z,100426.00
2018-04-01T02:38:33.631Z,100420.58
2018-04-01T02:41:36.175Z,100426.18
2018-04-01T02:44:39.451Z,100423.57
2018-04-01T02:47:41.978Z,100419.59
2018-04-01T02:50:44.482Z,100419.16
2018-04-01T02:53:47.016Z,100411.93
2018-04-01T02:56:50.294Z,100415.36
2018-04-01T02:59:52.819Z,100422.23
2018-04-01T03:02:55.323Z,100422.09
2018-04-01T03:05:57.868Z,100420.75
2018-04-01T03:09:00.378Z,100429.56
2018-04-01T03:12:02.909Z,100416.72
2018-04-01T03:15:06.197Z,100418.66
2018-04-01T03:18:09.490Z,100418.41
2018-04-01T03:21:12.007Z,100419.08
2018-04-01T03:24:14.531Z,100420.23
2018-04-01T03:27:17.039Z,100416.69
2018-04-01T03:30:19.554Z,100414.61
2018-04-01T03:33:22.062Z,100421.44
2018-04-01T03:36:24.586Z,100419.79
2018-04-01T03:39:27.111Z,100425.73
2018-04-01T03:42:29.628Z,100420.95
2018-04-01T03:45:32.159Z,100422.22
2018-04-01T03:48:34.667Z,100416.97
2018-04-01T03:51:37.972Z,100413.02
2018-04-01T03:54:41.238Z,100414.67
2018-04-01T03:57:43.759Z,100416.47
2018-04-01T04:00:46.267Z,100423.05
2018-04-01T04:03:48.786Z,100420.59
2018-04-01T04:06:52.054Z,100422.92
2018-04-01T04:09:54.575Z,100429.50
2018-04-01T04:12:57.846Z,100421.78
2018-04-01T04:16:00.370Z,100419.09
2018-04-01T04:19:02.894Z,100426.05
2018-04-01T04:22:05.402Z,100423.30
2018-04-01T04:25:08.694Z,100419.78
2018-04-01T04:28:11.967Z,100422.12
2018-04-01T04:31:14.497Z,100428.16
2018-04-01T04:34:17.007Z,100426.08
2018-04-01T04:37:19.543Z,100431.62
2018-04-01T04:40:22.050Z,100428.20
2018-04-01T04:43:24.578Z,100420.86
2018-04-01T04:46:27.870Z,100429.15
2018-04-01T04:49:31.138Z,100423.16
2018-04-01T04:52:33.662Z,100423.05
2018-04-01T04:55:36.168Z,100421.08
2018-04-01T04:58:38.689Z,100425.17
2018-04-01T05:01:41.192Z,100431.80
2018-04-01T05:04:43.715Z,100435.88
2018-04-01T05:07:46.215Z,100439.58
2018-04-01T05:10:48.738Z,100432.05
2018-04-01T05:13:51.262Z,100435.99
2018-04-01T05:16:53.787Z,100429.47
2018-04-01T05:19:56.306Z,100436.45
2018-04-01T05:22:58.810Z,100435.84
2018-04-01T05:26:01.335Z,100440.14
2018-04-01T05:29:03.835Z,100440.95
2018-04-01T05:32:06.358Z,100439.36
2018-04-01T05:35:09.649Z,100445.29
2018-04-01T05:38:12.918Z,100445.08
2018-04-01T05:41:15.438Z,100460.77
2018-04-01T05:44:17.958Z,100452.80
2018-04-01T05:47:20.467Z,100455.62
2018-04-01T05:50:22.995Z,100450.58
2018-04-01T05:53:25.518Z,100459.88
2018-04-01T05:56:28.027Z,100458.36
2018-04-01T05:59:30.554Z,100460.02
2018-04-01T06:02:33.059Z,100462.73
2018-04-01T06:05:35.582Z,100470.73
2018-04-01T06:08:38.090Z,100483.48
2018-04-01T06:11:40.616Z,100484.33
2018-04-01T06:14:43.123Z,100483.20
2018-04-01T06:17:45.642Z,100474.17
2018-04-01T06:20:48.151Z,100478.48
2018-04-01T06:23:50.674Z,100488.59
2018-04-01T06:26:53.188Z,100484.30
2018-04-01T06:29:56.474Z,100491.91
2018-04-01T06:32:58.983Z,100492.93
2018-04-01T06:36:02.879Z,100491.31
2018-04-01T06:39:09.928Z,100497.83
2018-04-01T06:42:19.842Z,100492.42
2018-04-01T06:45:22.624Z,100495.66
2018-04-01T06:48:29.927Z,100493.23
2018-04-01T06:51:36.591Z,100494.45
2018-04-01T06:54:42.220Z,100501.61
2018-04-01T07:00:57.866Z,100509.17
2018-04-01T07:11:28.198Z,100520.69
2018-04-01T07:14:41.095Z,100521.25
2018-04-01T07:21:28.569Z,100525.90
2018-04-01T07:38:29.054Z,100545.78
2018-04-01T07:52:30.942Z,100558.35
2018-04-01T07:59:19.121Z,100546.60
2018-04-01T08:06:06.783Z,100550.44
2018-04-01T08:09:09.295Z,100548.12
2018-04-01T08:12:11.814Z,100548.52
2018-04-01T08:15:14.339Z,100544.38
2018-04-01T08:18:16.882Z,100558.59
2018-04-01T08:21:19.403Z,100554.99
2018-04-01T08:24:27.680Z,100551.97
2018-04-01T08:30:41.645Z,100557.53
2018-04-01T08:33:46.373Z,100565.90
2018-04-01T08:36:48.998Z,100567.48
2018-04-01T08:40:24.747Z,100573.22
2018-04-01T08:43:28.634Z,100577.11
2018-04-01T08:46:31.456Z,100585.64
2018-04-01T08:49:34.843Z,100576.53
2018-04-01T08:52:38.488Z,100586.03
2018-04-01T08:55:41.943Z,100581.38
2018-04-01T08:58:54.659Z,100584.31
2018-04-01T09:01:58.127Z,100578.69
2018-04-01T09:05:07.105Z,100590.28
2018-04-01T09:08:14.917Z,100593.89
2018-04-01T09:11:20.379Z,100583.80
2018-04-01T09:14:22.967Z,100589.16
2018-04-01T09:17:26.879Z,100585.06
2018-04-01T09:20:29.434Z,100590.45
2018-04-01T09:23:31.964Z,100587.90
2018-04-01T09:26:34.469Z,100593.52
2018-04-01T09:29:37.762Z,100603.28
2018-04-01T09:32:41.034Z,100596.05
2018-04-01T09:35:43.561Z,100608.01
2018-04-01T09:38:52.791Z,100595.09
2018-04-01T09:41:55.271Z,100592.83
2018-04-01T09:45:04.000Z,100599.91
2018-04-01T09:48:07.468Z,100602.80
2018-04-01T09:51:10.034Z,100599.02
2018-04-01T09:54:15.697Z,100597.48
2018-04-01T09:57:18.218Z,100592.82
2018-04-01T10:00:25.610Z,100598.38
2018-04-01T10:03:28.942Z,100599.64
2018-04-01T10:06:32.267Z,100600.91
2018-04-01T10:09:35.574Z,100605.16
2018-04-01T10:12:39.662Z,100600.44
2018-04-01T10:15:42.998Z,100603.89
2018-04-01T10:18:46.307Z,100601.25
2018-04-01T10:21:49.638Z,100603.33
2018-04-01T10:24:52.938Z,100602.77
2018-04-01T10:27:56.252Z,100601.37
2018-04-01T10:30:59.578Z,100601.11
2018-04-01T10:34:02.903Z,100597.09
2018-04-01T10:37:06.203Z,100595.86
2018-04-01T10:40:09.536Z,100596.39
2018-04-01T10:43:12.839Z,100598.94
2018-04-01T10:46:16.172Z,100602.25
2018-04-01T10:49:19.461Z,100609.80
2018-04-01T10:52:22.787Z,100602.84
2018-04-01T10:55:25.323Z,100602.24
2018-04-01T10:58:28.607Z,100603.10
2018-04-01T11:01:31.897Z,100613.23
2018-04-01T11:04:34.402Z,100606.06
2018-04-01T11:07:36.911Z,100607.22
2018-04-01T11:10:39.462Z,100604.03
2018-04-01T11:13:41.971Z,100599.94
2018-04-01T11:16:44.528Z,100597.46
2018-04-01T11:19:47.043Z,100591.58
2018-04-01T11:22:49.557Z,100599.72
2018-04-01T11:25:52.846Z,100594.02
2018-04-01T11:28:55.376Z,100596.75
2018-04-01T11:31:57.898Z,100601.12
2018-04-01T11:35:00.418Z,100603.47
2018-04-01T11:38:02.922Z,100602.97
2018-04-01T11:41:05.447Z,100608.97
2018-04-01T11:44:08.761Z,100609.98
2018-04-01T11:47:11.287Z,100605.45
2018-04-01T11:50:13.818Z,100615.47
2018-04-01T11:53:16.322Z,100604.88
2018-04-01T11:56:18.859Z,100605.75
2018-04-01T11:59:21.363Z,100605.11
2018-04-01T12:02:23.878Z,100606.67
2018-04-01T12:05:26.387Z,100598.91
2018-04-01T12:08:29.678Z,100602.95
2018-04-01T12:11:32.951Z,100599.92
2018-04-01T12:14:35.471Z,100599.42
2018-04-01T12:17:38.007Z,100600.16
2018-04-01T12:20:40.510Z,100601.80
2018-04-01T12:23:43.814Z,100604.52
2018-04-01T12:26:46.318Z,100597.72
2018-04-01T12:29:48.837Z,100601.27
2018-04-01T12:32:51.348Z,100580.98
2018-04-01T12:35:53.879Z,100584.48
2018-04-01T12:38:56.391Z,100587.39
2018-04-01T12:41:59.694Z,100587.09
2018-04-01T12:45:03.001Z,100579.58
2018-04-01T12:48:05.502Z,100594.66
2018-04-01T12:51:08.083Z,100585.05
2018-04-01T12:54:10.558Z,100584.19
2018-04-01T12:57:13.078Z,100582.11
2018-04-01T13:00:15.592Z,100574.72
2018-04-01T13:03:18.131Z,100576.91
2018-04-01T13:06:20.644Z,100575.22
2018-04-01T13:09:23.167Z,100579.78
2018-04-01T13:12:25.707Z,100583.52
2018-04-01T13:15:28.203Z,100583.95
2018-04-01T13:18:30.722Z,100588.77
2018-04-01T13:21:33.241Z,100591.55
2018-04-01T13:24:35.768Z,100586.15
2018-04-01T13:27:38.282Z,100588.33
2018-04-01T13:30:41.574Z,100586.88
2018-04-01T13:33:44.884Z,100595.79
2018-04-01T13:36:47.402Z,100589.59
2018-04-01T13:39:49.931Z,100597.45
2018-04-01T13:42:52.445Z,100600.94
2018-04-01T13:45:54.964Z,100601.59
2018-04-01T13:48:58.242Z,100593.06
2018-04-01T13:52:00.772Z,100594.41
2018-04-01T13:55:03.283Z,100590.15
2018-04-01T13:58:05.830Z,100591.17
2018-04-01T14:01:08.341Z,100598.29
2018-04-01T14:04:10.876Z,100596.16
2018-04-01T14:07:13.404Z,100602.82
2018-04-01T14:10:15.913Z,100599.25
2018-04-01T14:13:19.215Z,100595.41
2018-04-01T14:16:22.502Z,100604.08
2018-04-01T14:19:25.822Z,100611.53
2018-04-01T14:22:28.348Z,100602.64
2018-04-01T14:25:30.867Z,100605.23
2018-04-01T14:28:34.150Z,100607.84
2018-04-01T14:31:36.694Z,100607.83
2018-04-01T14:34:39.202Z,100609.60
2018-04-01T14:37:41.727Z,100614.36
2018-04-01T14:40:44.236Z,100616.20
2018-04-01T14:43:46.766Z,100615.58
2018-04-01T14:46:49.277Z,100621.34
2018-04-01T14:49:51.815Z,100619.92
2018-04-01T14:52:54.326Z,100619.89
2018-04-01T14:55:56.850Z,100620.24
2018-04-01T14:58:59.367Z,100625.09
2018-04-01T15:02:01.898Z,100624.45
2018-04-01T15:05:04.410Z,100622.35
2018-04-01T15:08:06.930Z,100622.18
2018-04-01T15:11:09.470Z,100627.41
2018-04-01T15:14:11.989Z,100624.84
2018-04-01T15:17:14.512Z,100621.80
2018-04-01T15:20:17.782Z,100626.86
2018-04-01T15:23:20.326Z,100621.54
2018-04-01T15:26:22.830Z,100630.16
2018-04-01T15:29:25.361Z,100621.09
2018-04-01T15:32:27.857Z,100619.32
2018-04-01T15:35:30.375Z,100625.86
2018-04-01T15:38:32.881Z,100628.07
2018-04-01T15:41:35.399Z,100620.09
2018-04-01T15:44:37.918Z,100625.08
2018-04-01T15:47:41.208Z,100625.94
2018-04-01T15:50:44.484Z,100638.41
2018-04-01T15:53:47.859Z,100646.69
2018-04-01T15:56:50.374Z,100644.30
2018-04-01T15:59:52.893Z,100645.22
2018-04-01T16:02:55.422Z,100649.72
2018-04-01T16:05:57.938Z,100657.77
2018-04-01T16:09:00.476Z,100659.81
2018-04-01T16:12:02.982Z,100665.00
2018-04-01T16:15:06.274Z,100668.89
2018-04-01T16:18:09.574Z,100676.36
2018-04-01T16:21:12.074Z,100679.91
2018-04-01T16:24:14.607Z,100687.43
2018-04-01T16:27:17.121Z,100690.23
2018-04-01T16:30:19.642Z,100685.45
2018-04-01T16:33:22.392Z,100687.48
2018-04-01T16:36:24.926Z,100696.22
2018-04-01T16:39:27.515Z,100699.51
2018-04-01T16:42:30.806Z,100695.39
2018-04-01T16:45:33.310Z,100703.91
2018-04-01T16:48:35.862Z,100716.00
2018-04-01T16:51:38.365Z,100714.22
2018-04-01T16:54:40.905Z,100725.06
2018-04-01T16:57:43.411Z,100721.42
2018-04-01T17:00:46.697Z,100726.39
2018-04-01T17:03:50.000Z,100727.33
2018-04-01T17:06:53.275Z,100736.66
2018-04-01T17:09:55.798Z,100748.16
2018-04-01T17:12:58.307Z,100753.53
2018-04-01T17:16:01.015Z,100752.34
2018-04-01T17:19:03.840Z,100753.95
2018-04-01T17:22:06.411Z,100759.32
2018-04-01T17:25:08.934Z,100755.73
2018-04-01T17:28:11.463Z,100753.25
2018-04-01T17:31:13.976Z,100758.50
2018-04-01T17:34:16.494Z,100767.37
2018-04-01T17:37:19.782Z,100768.64
2018-04-01T17:40:22.306Z,100770.64
2018-04-01T17:43:24.811Z,100771.20
2018-04-01T17:46:27.337Z,100773.39
2018-04-01T17:49:30.611Z,100772.37
2018-04-01T17:52:33.137Z,100774.39
2018-04-01T17:55:35.678Z,100782.14
2018-04-01T17:58:38.178Z,100785.08
2018-04-01T18:01:40.701Z,100788.55
2018-04-01T18:04:43.224Z,100788.47
2018-04-01T18:07:45.767Z,100786.97
2018-04-01T18:10:48.279Z,100783.70
2018-04-01T18:13:51.582Z,100791.92
2018-04-01T18:16:54.091Z,100778.98
2018-04-01T18:19:56.738Z,100788.98
2018-04-01T18:22:59.277Z,100784.27
2018-04-01T18:26:01.787Z,100780.53
2018-04-01T18:29:05.120Z,100788.98
2018-04-01T18:32:07.606Z,100786.88
2018-04-01T18:35:10.148Z,100788.91
2018-04-01T18:38:13.426Z,100792.44
2018-04-01T18:41:16.713Z,100789.39
2018-04-01T18:44:19.227Z,100797.81
2018-04-01T18:47:21.750Z,100801.02
2018-04-01T18:50:24.267Z,100800.73
2018-04-01T18:53:27.578Z,100807.02
2018-04-01T18:56:30.091Z,100817.50
2018-04-01T18:59:32.614Z,100826.73
2018-04-01T19:02:35.903Z,100821.72
2018-04-01T19:05:39.195Z,100832.37
2018-04-01T19:08:42.507Z,100837.61
2018-04-01T19:11:45.784Z,100836.83
2018-04-01T19:14:48.306Z,100839.88
2018-04-01T19:17:51.630Z,100846.30
2018-04-01T19:20:54.943Z,100848.29
2018-04-01T19:23:58.398Z,100853.98
2018-04-01T19:27:01.722Z,100858.15
2018-04-01T19:30:05.034Z,100872.05
2018-04-01T19:33:08.351Z,100879.73
2018-04-01T19:36:12.450Z,100879.30
2018-04-01T19:39:15.754Z,100876.48
2018-04-01T19:42:19.066Z,100883.02
2018-04-01T19:45:23.131Z,100881.13
2018-04-01T19:48:26.452Z,100882.01
2018-04-01T19:51:29.759Z,100886.78
2018-04-01T19:54:33.075Z,100895.87
2018-04-01T19:57:37.164Z,100899.08
2018-04-01T20:00:40.463Z,100903.64
2018-04-01T20:03:43.781Z,100911.47
2018-04-01T20:06:47.850Z,100910.42
2018-04-01T20:09:51.202Z,100907.25
2018-04-01T20:12:55.249Z,100919.08
2018-04-01T20:15:58.558Z,100915.14
2018-04-01T20:19:01.871Z,100919.30
2018-04-01T20:22:05.166Z,100920.57
2018-04-01T20:25:08.483Z,100920.59
2018-04-01T20:28:12.555Z,100924.11
2018-04-01T20:31:15.862Z,100920.91
2018-04-01T20:34:19.179Z,100923.44
2018-04-01T20:37:22.499Z,100923.55
2018-04-01T20:40:26.558Z,100925.55
2018-04-01T20:43:29.876Z,100926.23
2018-04-01T20:46:33.197Z,100923.95
2018-04-01T20:49:37.274Z,100931.02
2018-04-01T20:52:40.583Z,100938.98
2018-04-01T20:55:43.884Z,100945.77
2018-04-01T20:58:47.206Z,100947.17
2018-04-01T21:01:51.286Z,100951.03
2018-04-01T21:04:54.602Z,100944.01
2018-04-01T21:07:57.895Z,100941.16
2018-04-01T21:11:01.203Z,100947.84
2018-04-01T21:14:05.278Z,100951.09
2018-04-01T21:17:08.585Z,100957.98
2018-04-01T21:20:11.902Z,100952.37
2018-04-01T21:23:15.971Z,100954.88
2018-04-01T21:26:19.279Z,100954.20
2018-04-01T21:29:22.599Z,100962.81
2018-04-01T21:32:25.915Z,100970.66
2018-04-01T21:35:29.993Z,100968.22
2018-04-01T21:38:33.287Z,100962.70
2018-04-01T21:41:36.598Z,100962.28
2018-04-01T21:44:39.898Z,100953.82
2018-04-01T21:47:43.219Z,100959.77
2018-04-01T21:50:47.283Z,100963.27
2018-04-01T21:53:50.604Z,100961.93
2018-04-01T21:56:53.899Z,100968.10
2018-04-01T21:59:57.215Z,100966.02
2018-04-01T22:03:01.294Z,100967.94
2018-04-01T22:06:04.586Z,100964.34
2018-04-01T22:09:07.910Z,100961.93
2018-04-01T22:12:11.227Z,100959.22
2018-04-01T22:15:15.306Z,100964.19
2018-04-01T22:18:18.623Z,100966.17
2018-04-01T22:21:21.955Z,100964.84
2018-04-01T22:24:25.248Z,100972.87
2018-04-01T22:27:28.563Z,100970.36
2018-04-01T22:30:31.875Z,100971.34
2018-04-01T22:33:35.181Z,100972.45
2018-04-01T22:36:38.501Z,100979.11
2018-04-01T22:39:42.562Z,100979.34
2018-04-01T22:42:45.879Z,100978.55
2018-04-01T22:45:49.182Z,100983.11
2018-04-01T22:48:53.269Z,100988.30
2018-04-01T22:51:56.563Z,100988.30
2018-04-01T22:54:59.884Z,100993.65
2018-04-01T22:58:03.966Z,100990.77
2018-04-01T23:01:07.263Z,100990.02
2018-04-01T23:04:10.577Z,100996.70
2018-04-01T23:07:13.875Z,100998.44
2018-04-01T23:10:17.199Z,100992.81
2018-04-01T23:13:20.663Z,100998.10
2018-04-01T23:16:23.981Z,100998.37
2018-04-01T23:19:27.300Z,100992.92
2018-04-01T23:22:43.472Z,100994.09
2018-04-01T23:25:48.654Z,101003.08
2018-04-01T23:28:52.791Z,100999.22
2018-04-01T23:31:56.164Z,101000.62
2018-04-01T23:35:02.358Z,101001.89
2018-04-01T23:38:05.720Z,101004.57
2018-04-01T23:41:10.789Z,101003.98
2018-04-01T23:44:15.924Z,101003.23
2018-04-01T23:47:19.330Z,101006.83
2018-04-01T23:50:23.742Z,101003.30
2018-04-01T23:53:29.711Z,101007.96
2018-04-01T23:56:33.970Z,101000.93
2018-04-01T23:59:37.629Z,101007.67
